Strona główna
METAR-TAF:

METAR-TAF

Lotnisko :

Baza lotnicza

Meppen, Niemcy

Szerokość geograficzna: 52-43-24N, Długość geograficzna: 007-19-35E, wysokość: 21 m

Aktualna obserwacja pogody

Raport powstał 50 minut temu, godzina 11:20 UTC
Wiatr 6 kt od południe
Temperatura 24°C
Wilgotność 44%
Ciśnienie 1010 hPa
Widzialność 10 km lub więcej
Mało chmury na wysokości 5000 ft
Rozproszone chmury na wysokości 11000 ft

METAR: ETWM 181120Z 19006KT 9999 FEW050 SCT110 24/11 Q1010 BLU+

czas: 14:10 (12:10 UTC)


TAF: brakujący

Obserwacja i prognoza pogody dla ponad 4000 lotnisk (raport METAR i TAF).

Dostępne stacje oznaczono żółtymi i czerwonymi punktami na mapie.

Najedź kursorem aby zobaczyć nazwę stacji.

Kliknij aby zobaczyć obserwacje i prognozy pogody.

Aby zmienić mapę: kliknij na zielony przycisk z czarnym krzyżykiem, aby powiększyć; na zielony przycisk z myślnikiem, aby pomniejszyć; na zielone strzałki, aby przejść do map sąsiednich.


METAR-TAF: